sensor_id;sensor_type;location;lat;lon;timestamp;P1;durP1;ratioP1;P2;durP2;ratioP2
17832;SDS011;9041;49.718;21.798;2022-12-07T00:01:40;26.40;;;12.90;;
17832;SDS011;9041;49.718;21.798;2022-12-07T00:04:14;32.10;;;13.83;;
17832;SDS011;9041;49.718;21.798;2022-12-07T00:06:42;25.30;;;12.37;;
17832;SDS011;9041;49.718;21.798;2022-12-07T00:09:10;27.97;;;12.63;;
17832;SDS011;9041;49.718;21.798;2022-12-07T00:11:38;20.47;;;11.40;;
17832;SDS011;9041;49.718;21.798;2022-12-07T00:14:07;23.47;;;11.60;;
17832;SDS011;9041;49.718;21.798;2022-12-07T00:16:37;20.63;;;10.43;;
17832;SDS011;9041;49.718;21.798;2022-12-07T00:19:05;23.47;;;11.37;;
17832;SDS011;9041;49.718;21.798;2022-12-07T00:21:32;20.60;;;10.20;;
17832;SDS011;9041;49.718;21.798;2022-12-07T00:24:02;19.53;;;9.93;;
17832;SDS011;9041;49.718;21.798;2022-12-07T00:26:30;21.30;;;9.87;;
17832;SDS011;9041;49.718;21.798;2022-12-07T00:28:58;22.53;;;10.30;;
17832;SDS011;9041;49.718;21.798;2022-12-07T00:31:26;18.97;;;9.87;;
17832;SDS011;9041;49.718;21.798;2022-12-07T00:33:54;17.73;;;9.77;;
17832;SDS011;9041;49.718;21.798;2022-12-07T00:36:25;17.27;;;9.60;;
17832;SDS011;9041;49.718;21.798;2022-12-07T00:38:52;19.57;;;8.90;;
17832;SDS011;9041;49.718;21.798;2022-12-07T00:41:19;22.10;;;9.27;;
17832;SDS011;9041;49.718;21.798;2022-12-07T00:43:48;16.80;;;8.27;;
17832;SDS011;9041;49.718;21.798;2022-12-07T00:46:15;20.17;;;9.27;;
17832;SDS011;9041;49.718;21.798;2022-12-07T00:48:42;18.33;;;8.33;;
17832;SDS011;9041;49.718;21.798;2022-12-07T00:51:09;18.53;;;8.23;;
17832;SDS011;9041;49.718;21.798;2022-12-07T00:53:37;18.50;;;8.47;;
17832;SDS011;9041;49.718;21.798;2022-12-07T00:56:05;16.97;;;8.47;;
17832;SDS011;9041;49.718;21.798;2022-12-07T00:58:32;17.80;;;8.80;;
17832;SDS011;9041;49.718;21.798;2022-12-07T01:01:01;17.93;;;7.93;;
17832;SDS011;9041;49.718;21.798;2022-12-07T01:03:32;18.27;;;8.37;;
17832;SDS011;9041;49.718;21.798;2022-12-07T01:05:58;15.70;;;7.90;;
17832;SDS011;9041;49.718;21.798;2022-12-07T01:08:31;15.50;;;7.30;;
17832;SDS011;9041;49.718;21.798;2022-12-07T01:11:03;16.00;;;7.43;;
17832;SDS011;9041;49.718;21.798;2022-12-07T01:13:30;15.93;;;7.60;;
17832;SDS011;9041;49.718;21.798;2022-12-07T01:15:58;14.07;;;7.63;;
17832;SDS011;9041;49.718;21.798;2022-12-07T01:18:26;19.60;;;7.60;;
17832;SDS011;9041;49.718;21.798;2022-12-07T01:20:59;14.80;;;7.40;;
17832;SDS011;9041;49.718;21.798;2022-12-07T01:23:27;12.83;;;7.10;;
17832;SDS011;9041;49.718;21.798;2022-12-07T01:25:54;14.30;;;7.20;;
17832;SDS011;9041;49.718;21.798;2022-12-07T01:28:23;17.77;;;7.77;;
17832;SDS011;9041;49.718;21.798;2022-12-07T01:30:56;14.77;;;7.43;;
17832;SDS011;9041;49.718;21.798;2022-12-07T01:33:24;18.23;;;6.90;;
17832;SDS011;9041;49.718;21.798;2022-12-07T01:35:52;17.00;;;7.40;;
17832;SDS011;9041;49.718;21.798;2022-12-07T01:38:19;15.83;;;6.60;;
17832;SDS011;9041;49.718;21.798;2022-12-07T01:40:50;14.37;;;6.77;;
17832;SDS011;9041;49.718;21.798;2022-12-07T01:43:20;13.00;;;6.33;;
17832;SDS011;9041;49.718;21.798;2022-12-07T01:45:48;13.93;;;6.20;;
17832;SDS011;9041;49.718;21.798;2022-12-07T01:48:16;13.43;;;6.43;;
17832;SDS011;9041;49.718;21.798;2022-12-07T01:50:48;9.50;;;5.83;;
17832;SDS011;9041;49.718;21.798;2022-12-07T01:53:15;12.03;;;5.77;;
17832;SDS011;9041;49.718;21.798;2022-12-07T01:55:43;9.53;;;5.50;;
17832;SDS011;9041;49.718;21.798;2022-12-07T01:58:12;11.70;;;5.77;;
17832;SDS011;9041;49.718;21.798;2022-12-07T02:00:40;11.40;;;5.40;;
17832;SDS011;9041;49.718;21.798;2022-12-07T02:03:09;9.47;;;5.10;;
17832;SDS011;9041;49.718;21.798;2022-12-07T02:05:41;9.70;;;5.47;;
17832;SDS011;9041;49.718;21.798;2022-12-07T02:08:08;10.37;;;5.10;;
17832;SDS011;9041;49.718;21.798;2022-12-07T02:10:36;10.23;;;5.63;;
17832;SDS011;9041;49.718;21.798;2022-12-07T02:13:03;7.47;;;4.60;;
17832;SDS011;9041;49.718;21.798;2022-12-07T02:15:34;9.77;;;4.83;;
17832;SDS011;9041;49.718;21.798;2022-12-07T02:21:11;9.03;;;4.90;;
17832;SDS011;9041;49.718;21.798;2022-12-07T02:26:51;6.10;;;3.90;;
17832;SDS011;9041;49.718;21.798;2022-12-07T02:29:44;8.43;;;4.57;;
17832;SDS011;9041;49.718;21.798;2022-12-07T02:32:14;8.60;;;4.80;;
17832;SDS011;9041;49.718;21.798;2022-12-07T02:34:44;7.33;;;3.93;;
17832;SDS011;9041;49.718;21.798;2022-12-07T02:37:17;7.40;;;4.47;;
17832;SDS011;9041;49.718;21.798;2022-12-07T02:39:49;9.00;;;4.70;;
17832;SDS011;9041;49.718;21.798;2022-12-07T02:42:20;6.53;;;4.13;;
17832;SDS011;9041;49.718;21.798;2022-12-07T02:44:51;11.37;;;4.73;;
17832;SDS011;9041;49.718;21.798;2022-12-07T02:47:18;7.47;;;4.00;;
17832;SDS011;9041;49.718;21.798;2022-12-07T02:49:46;7.30;;;4.47;;
17832;SDS011;9041;49.718;21.798;2022-12-07T02:52:13;7.33;;;4.33;;
17832;SDS011;9041;49.718;21.798;2022-12-07T02:54:40;7.40;;;4.63;;
17832;SDS011;9041;49.718;21.798;2022-12-07T02:57:13;10.70;;;4.53;;
17832;SDS011;9041;49.718;21.798;2022-12-07T02:59:48;8.97;;;4.50;;
17832;SDS011;9041;49.718;21.798;2022-12-07T03:02:25;13.63;;;5.07;;
17832;SDS011;9041;49.718;21.798;2022-12-07T03:05:00;9.50;;;4.70;;
17832;SDS011;9041;49.718;21.798;2022-12-07T03:07:37;8.07;;;3.93;;
17832;SDS011;9041;49.718;21.798;2022-12-07T03:10:11;6.47;;;4.17;;
17832;SDS011;9041;49.718;21.798;2022-12-07T03:12:42;8.20;;;3.83;;
17832;SDS011;9041;49.718;21.798;2022-12-07T03:15:14;5.30;;;3.70;;
17832;SDS011;9041;49.718;21.798;2022-12-07T03:17:45;8.17;;;3.93;;
17832;SDS011;9041;49.718;21.798;2022-12-07T03:20:13;6.43;;;3.90;;
17832;SDS011;9041;49.718;21.798;2022-12-07T03:22:50;7.93;;;4.20;;
17832;SDS011;9041;49.718;21.798;2022-12-07T03:25:17;7.47;;;3.90;;
17832;SDS011;9041;49.718;21.798;2022-12-07T03:27:44;5.13;;;3.40;;
17832;SDS011;9041;49.718;21.798;2022-12-07T03:30:17;7.00;;;4.13;;
17832;SDS011;9041;49.718;21.798;2022-12-07T03:32:45;5.47;;;3.97;;
17832;SDS011;9041;49.718;21.798;2022-12-07T03:35:16;6.67;;;3.97;;
17832;SDS011;9041;49.718;21.798;2022-12-07T03:37:47;6.17;;;4.03;;
17832;SDS011;9041;49.718;21.798;2022-12-07T03:40:16;10.33;;;5.03;;
17832;SDS011;9041;49.718;21.798;2022-12-07T03:42:47;8.90;;;5.07;;
17832;SDS011;9041;49.718;21.798;2022-12-07T03:45:16;11.30;;;4.67;;
17832;SDS011;9041;49.718;21.798;2022-12-07T03:47:43;10.00;;;5.53;;
17832;SDS011;9041;49.718;21.798;2022-12-07T03:50:13;11.60;;;7.03;;
17832;SDS011;9041;49.718;21.798;2022-12-07T03:52:43;16.00;;;8.03;;
17832;SDS011;9041;49.718;21.798;2022-12-07T03:55:14;13.63;;;6.60;;
17832;SDS011;9041;49.718;21.798;2022-12-07T03:57:41;9.63;;;5.00;;
17832;SDS011;9041;49.718;21.798;2022-12-07T04:00:10;9.57;;;4.90;;
17832;SDS011;9041;49.718;21.798;2022-12-07T04:02:39;8.70;;;5.30;;
17832;SDS011;9041;49.718;21.798;2022-12-07T04:05:06;8.27;;;4.93;;
17832;SDS011;9041;49.718;21.798;2022-12-07T04:07:33;10.40;;;5.20;;
17832;SDS011;9041;49.718;21.798;2022-12-07T04:10:00;9.37;;;5.50;;
17832;SDS011;9041;49.718;21.798;2022-12-07T04:12:29;10.30;;;5.23;;
17832;SDS011;9041;49.718;21.798;2022-12-07T04:14:55;9.27;;;5.33;;
17832;SDS011;9041;49.718;21.798;2022-12-07T04:17:22;11.53;;;5.67;;
17832;SDS011;9041;49.718;21.798;2022-12-07T04:19:50;11.03;;;5.37;;
17832;SDS011;9041;49.718;21.798;2022-12-07T04:22:16;9.10;;;5.00;;
17832;SDS011;9041;49.718;21.798;2022-12-07T04:24:43;9.10;;;5.10;;
17832;SDS011;9041;49.718;21.798;2022-12-07T04:27:10;10.83;;;5.37;;
17832;SDS011;9041;49.718;21.798;2022-12-07T04:29:36;16.63;;;6.00;;
17832;SDS011;9041;49.718;21.798;2022-12-07T04:32:03;11.20;;;5.03;;
17832;SDS011;9041;49.718;21.798;2022-12-07T04:34:30;10.17;;;5.50;;
17832;SDS011;9041;49.718;21.798;2022-12-07T04:36:58;13.53;;;5.83;;
17832;SDS011;9041;49.718;21.798;2022-12-07T04:39:25;12.20;;;6.10;;
17832;SDS011;9041;49.718;21.798;2022-12-07T04:41:53;11.27;;;6.03;;
17832;SDS011;9041;49.718;21.798;2022-12-07T04:44:20;13.80;;;6.63;;
17832;SDS011;9041;49.718;21.798;2022-12-07T04:46:49;14.20;;;5.37;;
17832;SDS011;9041;49.718;21.798;2022-12-07T04:49:16;11.13;;;5.37;;
17832;SDS011;9041;49.718;21.798;2022-12-07T04:51:43;14.70;;;6.30;;
17832;SDS011;9041;49.718;21.798;2022-12-07T04:54:12;16.10;;;5.67;;
17832;SDS011;9041;49.718;21.798;2022-12-07T04:56:40;10.27;;;5.83;;
17832;SDS011;9041;49.718;21.798;2022-12-07T04:59:07;16.20;;;7.20;;
17832;SDS011;9041;49.718;21.798;2022-12-07T05:01:34;12.60;;;5.47;;
17832;SDS011;9041;49.718;21.798;2022-12-07T05:04:00;12.57;;;5.83;;
17832;SDS011;9041;49.718;21.798;2022-12-07T05:06:27;14.27;;;6.63;;
17832;SDS011;9041;49.718;21.798;2022-12-07T05:08:54;12.17;;;5.90;;
17832;SDS011;9041;49.718;21.798;2022-12-07T05:11:22;14.23;;;5.70;;
17832;SDS011;9041;49.718;21.798;2022-12-07T05:14:05;11.87;;;6.00;;
17832;SDS011;9041;49.718;21.798;2022-12-07T05:16:33;11.53;;;5.30;;
17832;SDS011;9041;49.718;21.798;2022-12-07T05:19:02;12.07;;;6.60;;
17832;SDS011;9041;49.718;21.798;2022-12-07T05:21:29;12.87;;;6.37;;
17832;SDS011;9041;49.718;21.798;2022-12-07T05:23:56;10.93;;;6.27;;
17832;SDS011;9041;49.718;21.798;2022-12-07T05:26:24;14.10;;;7.40;;
17832;SDS011;9041;49.718;21.798;2022-12-07T05:28:51;16.33;;;7.87;;
17832;SDS011;9041;49.718;21.798;2022-12-07T05:31:18;26.33;;;11.17;;
17832;SDS011;9041;49.718;21.798;2022-12-07T05:33:45;21.80;;;10.37;;
17832;SDS011;9041;49.718;21.798;2022-12-07T05:36:12;19.20;;;7.33;;
17832;SDS011;9041;49.718;21.798;2022-12-07T05:38:39;15.77;;;8.70;;
17832;SDS011;9041;49.718;21.798;2022-12-07T05:41:06;15.83;;;8.07;;
17832;SDS011;9041;49.718;21.798;2022-12-07T05:43:58;17.47;;;7.63;;
17832;SDS011;9041;49.718;21.798;2022-12-07T05:46:25;14.23;;;6.90;;
17832;SDS011;9041;49.718;21.798;2022-12-07T05:48:52;16.80;;;7.60;;
17832;SDS011;9041;49.718;21.798;2022-12-07T05:51:18;12.60;;;7.30;;
17832;SDS011;9041;49.718;21.798;2022-12-07T05:53:45;12.00;;;7.63;;
17832;SDS011;9041;49.718;21.798;2022-12-07T05:56:12;18.23;;;8.37;;
17832;SDS011;9041;49.718;21.798;2022-12-07T05:58:38;17.67;;;8.53;;
17832;SDS011;9041;49.718;21.798;2022-12-07T06:01:24;14.77;;;8.10;;
17832;SDS011;9041;49.718;21.798;2022-12-07T06:03:50;14.40;;;8.03;;
17832;SDS011;9041;49.718;21.798;2022-12-07T06:06:17;16.17;;;7.47;;
17832;SDS011;9041;49.718;21.798;2022-12-07T06:08:43;14.67;;;8.07;;
17832;SDS011;9041;49.718;21.798;2022-12-07T06:11:10;12.40;;;7.13;;
17832;SDS011;9041;49.718;21.798;2022-12-07T06:13:54;12.70;;;7.00;;
17832;SDS011;9041;49.718;21.798;2022-12-07T06:16:21;16.07;;;6.87;;
17832;SDS011;9041;49.718;21.798;2022-12-07T06:18:50;14.37;;;7.47;;
17832;SDS011;9041;49.718;21.798;2022-12-07T06:21:16;13.57;;;7.17;;
17832;SDS011;9041;49.718;21.798;2022-12-07T06:23:43;12.30;;;7.10;;
17832;SDS011;9041;49.718;21.798;2022-12-07T06:26:10;12.60;;;6.80;;
17832;SDS011;9041;49.718;21.798;2022-12-07T06:28:36;11.17;;;6.60;;
17832;SDS011;9041;49.718;21.798;2022-12-07T06:31:05;12.33;;;7.17;;
17832;SDS011;9041;49.718;21.798;2022-12-07T06:33:33;10.73;;;6.50;;
17832;SDS011;9041;49.718;21.798;2022-12-07T06:36:00;10.37;;;6.17;;
17832;SDS011;9041;49.718;21.798;2022-12-07T06:38:26;13.53;;;6.20;;
17832;SDS011;9041;49.718;21.798;2022-12-07T06:40:53;14.87;;;6.43;;
17832;SDS011;9041;49.718;21.798;2022-12-07T06:43:20;14.10;;;7.03;;
17832;SDS011;9041;49.718;21.798;2022-12-07T06:45:47;13.00;;;6.00;;
17832;SDS011;9041;49.718;21.798;2022-12-07T06:48:13;10.43;;;5.77;;
17832;SDS011;9041;49.718;21.798;2022-12-07T06:50:43;9.67;;;6.30;;
17832;SDS011;9041;49.718;21.798;2022-12-07T06:53:10;10.57;;;6.50;;
17832;SDS011;9041;49.718;21.798;2022-12-07T06:55:37;14.93;;;6.13;;
17832;SDS011;9041;49.718;21.798;2022-12-07T06:58:03;12.03;;;6.13;;
17832;SDS011;9041;49.718;21.798;2022-12-07T07:00:32;9.23;;;5.97;;
17832;SDS011;9041;49.718;21.798;2022-12-07T07:03:00;10.47;;;6.43;;
17832;SDS011;9041;49.718;21.798;2022-12-07T07:05:26;10.80;;;6.60;;
17832;SDS011;9041;49.718;21.798;2022-12-07T07:07:54;14.10;;;6.97;;
17832;SDS011;9041;49.718;21.798;2022-12-07T07:10:21;14.80;;;6.97;;
17832;SDS011;9041;49.718;21.798;2022-12-07T07:12:48;11.70;;;6.50;;
17832;SDS011;9041;49.718;21.798;2022-12-07T07:15:14;11.57;;;6.83;;
17832;SDS011;9041;49.718;21.798;2022-12-07T07:17:41;14.70;;;6.93;;
17832;SDS011;9041;49.718;21.798;2022-12-07T07:20:11;14.20;;;7.40;;
17832;SDS011;9041;49.718;21.798;2022-12-07T07:22:38;12.77;;;6.57;;
17832;SDS011;9041;49.718;21.798;2022-12-07T07:25:07;11.23;;;6.90;;
17832;SDS011;9041;49.718;21.798;2022-12-07T07:27:35;11.63;;;7.53;;
17832;SDS011;9041;49.718;21.798;2022-12-07T07:30:02;11.00;;;6.63;;
17832;SDS011;9041;49.718;21.798;2022-12-07T07:32:29;12.87;;;7.00;;
17832;SDS011;9041;49.718;21.798;2022-12-07T07:34:56;11.37;;;7.00;;
17832;SDS011;9041;49.718;21.798;2022-12-07T07:37:22;11.23;;;6.70;;
17832;SDS011;9041;49.718;21.798;2022-12-07T07:39:51;13.93;;;7.30;;
17832;SDS011;9041;49.718;21.798;2022-12-07T07:42:19;14.73;;;7.37;;
17832;SDS011;9041;49.718;21.798;2022-12-07T07:44:45;15.63;;;7.87;;
17832;SDS011;9041;49.718;21.798;2022-12-07T07:47:12;17.97;;;8.23;;
17832;SDS011;9041;49.718;21.798;2022-12-07T07:49:38;17.30;;;8.80;;
17832;SDS011;9041;49.718;21.798;2022-12-07T07:52:07;15.83;;;7.80;;
17832;SDS011;9041;49.718;21.798;2022-12-07T07:54:33;18.43;;;7.90;;
17832;SDS011;9041;49.718;21.798;2022-12-07T07:57:00;17.47;;;8.63;;
17832;SDS011;9041;49.718;21.798;2022-12-07T07:59:28;16.67;;;8.73;;
17832;SDS011;9041;49.718;21.798;2022-12-07T08:01:54;15.70;;;8.43;;
17832;SDS011;9041;49.718;21.798;2022-12-07T08:04:21;14.20;;;7.63;;
17832;SDS011;9041;49.718;21.798;2022-12-07T08:06:51;17.43;;;8.17;;
17832;SDS011;9041;49.718;21.798;2022-12-07T08:09:17;18.80;;;7.90;;
17832;SDS011;9041;49.718;21.798;2022-12-07T08:11:44;12.80;;;7.23;;
17832;SDS011;9041;49.718;21.798;2022-12-07T08:14:11;13.17;;;7.00;;
17832;SDS011;9041;49.718;21.798;2022-12-07T08:16:39;13.93;;;7.03;;
17832;SDS011;9041;49.718;21.798;2022-12-07T08:19:06;12.70;;;7.60;;
17832;SDS011;9041;49.718;21.798;2022-12-07T08:21:40;12.37;;;7.47;;
17832;SDS011;9041;49.718;21.798;2022-12-07T08:24:07;14.27;;;6.80;;
17832;SDS011;9041;49.718;21.798;2022-12-07T08:26:33;18.13;;;7.30;;
17832;SDS011;9041;49.718;21.798;2022-12-07T08:29:00;10.03;;;6.20;;
17832;SDS011;9041;49.718;21.798;2022-12-07T08:31:27;12.73;;;6.47;;
17832;SDS011;9041;49.718;21.798;2022-12-07T08:33:58;12.83;;;6.60;;
17832;SDS011;9041;49.718;21.798;2022-12-07T08:36:26;14.87;;;7.10;;
17832;SDS011;9041;49.718;21.798;2022-12-07T08:38:52;10.93;;;6.67;;
17832;SDS011;9041;49.718;21.798;2022-12-07T08:41:19;14.50;;;7.13;;
17832;SDS011;9041;49.718;21.798;2022-12-07T08:43:46;14.23;;;6.80;;
17832;SDS011;9041;49.718;21.798;2022-12-07T08:46:13;15.23;;;7.00;;
17832;SDS011;9041;49.718;21.798;2022-12-07T08:48:44;11.20;;;7.10;;
17832;SDS011;9041;49.718;21.798;2022-12-07T08:51:14;11.73;;;6.50;;
17832;SDS011;9041;49.718;21.798;2022-12-07T08:53:41;11.63;;;7.07;;
17832;SDS011;9041;49.718;21.798;2022-12-07T08:56:09;11.47;;;6.70;;
17832;SDS011;9041;49.718;21.798;2022-12-07T08:58:35;11.83;;;6.83;;
17832;SDS011;9041;49.718;21.798;2022-12-07T09:01:03;12.33;;;6.70;;
17832;SDS011;9041;49.718;21.798;2022-12-07T09:03:30;13.43;;;6.80;;
17832;SDS011;9041;49.718;21.798;2022-12-07T09:05:59;12.17;;;6.53;;
17832;SDS011;9041;49.718;21.798;2022-12-07T09:08:28;11.37;;;6.40;;
17832;SDS011;9041;49.718;21.798;2022-12-07T09:10:57;11.10;;;6.43;;
17832;SDS011;9041;49.718;21.798;2022-12-07T09:13:24;13.07;;;7.10;;
17832;SDS011;9041;49.718;21.798;2022-12-07T09:15:53;15.53;;;7.43;;
17832;SDS011;9041;49.718;21.798;2022-12-07T09:18:20;11.63;;;6.33;;
17832;SDS011;9041;49.718;21.798;2022-12-07T09:20:46;11.73;;;6.67;;
17832;SDS011;9041;49.718;21.798;2022-12-07T09:23:13;13.30;;;6.57;;
17832;SDS011;9041;49.718;21.798;2022-12-07T09:25:41;12.87;;;7.20;;
17832;SDS011;9041;49.718;21.798;2022-12-07T09:28:08;12.03;;;7.20;;
17832;SDS011;9041;49.718;21.798;2022-12-07T09:30:35;12.93;;;6.87;;
17832;SDS011;9041;49.718;21.798;2022-12-07T09:33:07;11.40;;;6.80;;
17832;SDS011;9041;49.718;21.798;2022-12-07T09:35:34;14.13;;;6.73;;
17832;SDS011;9041;49.718;21.798;2022-12-07T09:38:01;14.93;;;6.83;;
17832;SDS011;9041;49.718;21.798;2022-12-07T09:40:27;12.30;;;6.93;;
17832;SDS011;9041;49.718;21.798;2022-12-07T09:42:56;16.67;;;7.37;;
17832;SDS011;9041;49.718;21.798;2022-12-07T09:45:23;12.53;;;6.87;;
17832;SDS011;9041;49.718;21.798;2022-12-07T09:47:51;17.53;;;7.13;;
17832;SDS011;9041;49.718;21.798;2022-12-07T09:50:19;15.57;;;6.60;;
17832;SDS011;9041;49.718;21.798;2022-12-07T09:52:47;13.93;;;7.13;;
17832;SDS011;9041;49.718;21.798;2022-12-07T09:55:16;13.40;;;7.37;;
17832;SDS011;9041;49.718;21.798;2022-12-07T09:57:46;10.53;;;6.37;;
17832;SDS011;9041;49.718;21.798;2022-12-07T10:00:16;13.23;;;7.23;;
17832;SDS011;9041;49.718;21.798;2022-12-07T10:02:48;12.07;;;6.87;;
17832;SDS011;9041;49.718;21.798;2022-12-07T10:05:18;15.87;;;8.03;;
17832;SDS011;9041;49.718;21.798;2022-12-07T10:07:46;14.97;;;7.40;;
17832;SDS011;9041;49.718;21.798;2022-12-07T10:10:14;15.20;;;8.60;;
17832;SDS011;9041;49.718;21.798;2022-12-07T10:12:52;19.43;;;8.30;;
17832;SDS011;9041;49.718;21.798;2022-12-07T10:15:25;17.17;;;8.27;;
17832;SDS011;9041;49.718;21.798;2022-12-07T10:18:20;19.53;;;8.67;;
17832;SDS011;9041;49.718;21.798;2022-12-07T10:21:00;21.43;;;9.40;;
17832;SDS011;9041;49.718;21.798;2022-12-07T10:23:28;16.03;;;8.23;;
17832;SDS011;9041;49.718;21.798;2022-12-07T10:25:55;16.50;;;7.60;;
17832;SDS011;9041;49.718;21.798;2022-12-07T10:28:21;18.07;;;9.53;;
17832;SDS011;9041;49.718;21.798;2022-12-07T10:30:54;20.47;;;9.83;;
17832;SDS011;9041;49.718;21.798;2022-12-07T10:33:31;16.93;;;9.30;;
17832;SDS011;9041;49.718;21.798;2022-12-07T10:36:00;17.03;;;8.43;;
17832;SDS011;9041;49.718;21.798;2022-12-07T10:38:28;15.83;;;9.33;;
17832;SDS011;9041;49.718;21.798;2022-12-07T10:41:04;22.43;;;9.80;;
17832;SDS011;9041;49.718;21.798;2022-12-07T10:43:32;18.77;;;9.87;;
17832;SDS011;9041;49.718;21.798;2022-12-07T10:46:06;13.50;;;7.00;;
17832;SDS011;9041;49.718;21.798;2022-12-07T10:48:41;16.77;;;8.27;;
17832;SDS011;9041;49.718;21.798;2022-12-07T10:51:15;21.17;;;7.83;;
17832;SDS011;9041;49.718;21.798;2022-12-07T10:53:47;16.80;;;8.67;;
17832;SDS011;9041;49.718;21.798;2022-12-07T10:56:31;17.33;;;8.43;;
17832;SDS011;9041;49.718;21.798;2022-12-07T10:59:07;28.83;;;12.83;;
17832;SDS011;9041;49.718;21.798;2022-12-07T11:01:43;48.00;;;17.70;;
17832;SDS011;9041;49.718;21.798;2022-12-07T11:04:18;74.00;;;21.13;;
17832;SDS011;9041;49.718;21.798;2022-12-07T11:06:52;101.27;;;26.90;;
17832;SDS011;9041;49.718;21.798;2022-12-07T11:09:29;47.27;;;17.30;;
17832;SDS011;9041;49.718;21.798;2022-12-07T11:12:05;24.33;;;11.67;;
17832;SDS011;9041;49.718;21.798;2022-12-07T11:14:37;23.77;;;11.60;;
17832;SDS011;9041;49.718;21.798;2022-12-07T11:17:13;39.87;;;14.27;;
17832;SDS011;9041;49.718;21.798;2022-12-07T11:19:47;31.83;;;14.03;;
17832;SDS011;9041;49.718;21.798;2022-12-07T11:22:20;48.27;;;18.77;;
17832;SDS011;9041;49.718;21.798;2022-12-07T11:24:53;61.13;;;21.33;;
17832;SDS011;9041;49.718;21.798;2022-12-07T11:27:28;46.63;;;17.87;;
17832;SDS011;9041;49.718;21.798;2022-12-07T11:30:02;26.40;;;13.10;;
17832;SDS011;9041;49.718;21.798;2022-12-07T11:32:49;23.07;;;11.50;;
17832;SDS011;9041;49.718;21.798;2022-12-07T11:35:22;34.90;;;15.00;;
17832;SDS011;9041;49.718;21.798;2022-12-07T11:37:55;22.50;;;10.67;;
17832;SDS011;9041;49.718;21.798;2022-12-07T11:40:24;34.33;;;13.53;;
17832;SDS011;9041;49.718;21.798;2022-12-07T11:42:55;55.10;;;18.30;;
17832;SDS011;9041;49.718;21.798;2022-12-07T11:45:25;32.03;;;12.67;;
17832;SDS011;9041;49.718;21.798;2022-12-07T11:47:56;20.57;;;9.17;;
17832;SDS011;9041;49.718;21.798;2022-12-07T11:50:35;65.37;;;21.27;;
17832;SDS011;9041;49.718;21.798;2022-12-07T11:53:05;48.27;;;15.90;;
17832;SDS011;9041;49.718;21.798;2022-12-07T11:55:39;43.27;;;15.50;;
17832;SDS011;9041;49.718;21.798;2022-12-07T11:58:12;23.10;;;11.87;;
17832;SDS011;9041;49.718;21.798;2022-12-07T12:00:46;26.77;;;12.37;;
17832;SDS011;9041;49.718;21.798;2022-12-07T12:03:23;24.87;;;12.50;;
17832;SDS011;9041;49.718;21.798;2022-12-07T12:05:55;29.63;;;13.13;;
17832;SDS011;9041;49.718;21.798;2022-12-07T12:08:22;29.03;;;15.27;;
17832;SDS011;9041;49.718;21.798;2022-12-07T12:10:55;36.40;;;14.63;;
17832;SDS011;9041;49.718;21.798;2022-12-07T12:13:28;21.43;;;12.03;;
17832;SDS011;9041;49.718;21.798;2022-12-07T12:16:13;41.97;;;18.07;;
17832;SDS011;9041;49.718;21.798;2022-12-07T12:18:51;35.37;;;17.77;;
17832;SDS011;9041;49.718;21.798;2022-12-07T12:21:25;29.70;;;13.50;;
17832;SDS011;9041;49.718;21.798;2022-12-07T12:23:56;26.87;;;13.23;;
17832;SDS011;9041;49.718;21.798;2022-12-07T12:26:24;30.33;;;15.73;;
17832;SDS011;9041;49.718;21.798;2022-12-07T12:28:53;24.40;;;12.17;;
17832;SDS011;9041;49.718;21.798;2022-12-07T12:31:31;20.60;;;10.57;;
17832;SDS011;9041;49.718;21.798;2022-12-07T12:34:03;21.63;;;10.43;;
17832;SDS011;9041;49.718;21.798;2022-12-07T12:39:18;33.73;;;15.67;;
17832;SDS011;9041;49.718;21.798;2022-12-07T12:41:56;27.90;;;13.97;;
17832;SDS011;9041;49.718;21.798;2022-12-07T12:44:41;26.53;;;13.50;;
17832;SDS011;9041;49.718;21.798;2022-12-07T12:50:31;22.63;;;12.00;;
17832;SDS011;9041;49.718;21.798;2022-12-07T12:53:02;26.13;;;12.80;;
17832;SDS011;9041;49.718;21.798;2022-12-07T12:58:35;23.83;;;11.80;;
17832;SDS011;9041;49.718;21.798;2022-12-07T13:10:25;21.80;;;10.13;;
17832;SDS011;9041;49.718;21.798;2022-12-07T13:13:03;20.53;;;10.17;;
17832;SDS011;9041;49.718;21.798;2022-12-07T13:15:32;24.53;;;12.07;;
17832;SDS011;9041;49.718;21.798;2022-12-07T13:18:22;17.73;;;9.30;;
17832;SDS011;9041;49.718;21.798;2022-12-07T13:20:51;26.10;;;11.73;;
17832;SDS011;9041;49.718;21.798;2022-12-07T13:23:31;24.90;;;12.07;;
17832;SDS011;9041;49.718;21.798;2022-12-07T13:26:00;24.93;;;11.63;;
17832;SDS011;9041;49.718;21.798;2022-12-07T13:28:32;32.33;;;14.50;;
17832;SDS011;9041;49.718;21.798;2022-12-07T13:33:59;29.17;;;14.47;;
17832;SDS011;9041;49.718;21.798;2022-12-07T13:36:26;34.93;;;15.70;;
17832;SDS011;9041;49.718;21.798;2022-12-07T13:38:58;36.57;;;17.83;;
17832;SDS011;9041;49.718;21.798;2022-12-07T13:41:26;49.83;;;20.90;;
17832;SDS011;9041;49.718;21.798;2022-12-07T13:43:54;52.47;;;22.20;;
17832;SDS011;9041;49.718;21.798;2022-12-07T13:46:30;43.80;;;18.57;;
17832;SDS011;9041;49.718;21.798;2022-12-07T13:49:03;40.33;;;18.47;;
17832;SDS011;9041;49.718;21.798;2022-12-07T13:51:46;33.57;;;16.70;;
17832;SDS011;9041;49.718;21.798;2022-12-07T13:54:15;33.03;;;16.30;;
17832;SDS011;9041;49.718;21.798;2022-12-07T13:56:42;48.43;;;21.30;;
17832;SDS011;9041;49.718;21.798;2022-12-07T13:59:14;73.57;;;29.10;;
17832;SDS011;9041;49.718;21.798;2022-12-07T14:01:42;58.47;;;23.33;;
17832;SDS011;9041;49.718;21.798;2022-12-07T14:07:00;40.87;;;17.23;;
17832;SDS011;9041;49.718;21.798;2022-12-07T14:09:31;35.87;;;16.43;;
17832;SDS011;9041;49.718;21.798;2022-12-07T14:11:59;32.67;;;15.40;;
17832;SDS011;9041;49.718;21.798;2022-12-07T14:14:32;37.23;;;15.90;;
17832;SDS011;9041;49.718;21.798;2022-12-07T14:17:00;32.60;;;15.47;;
17832;SDS011;9041;49.718;21.798;2022-12-07T14:19:42;30.87;;;14.50;;
17832;SDS011;9041;49.718;21.798;2022-12-07T14:22:23;31.37;;;14.03;;
17832;SDS011;9041;49.718;21.798;2022-12-07T14:24:58;36.27;;;14.50;;
17832;SDS011;9041;49.718;21.798;2022-12-07T14:27:30;38.63;;;18.57;;
17832;SDS011;9041;49.718;21.798;2022-12-07T14:29:59;36.83;;;17.27;;
17832;SDS011;9041;49.718;21.798;2022-12-07T14:32:26;31.40;;;15.83;;
17832;SDS011;9041;49.718;21.798;2022-12-07T14:34:58;35.23;;;17.50;;
17832;SDS011;9041;49.718;21.798;2022-12-07T14:37:26;48.20;;;23.13;;
17832;SDS011;9041;49.718;21.798;2022-12-07T14:39:53;61.17;;;26.57;;
17832;SDS011;9041;49.718;21.798;2022-12-07T14:42:22;54.10;;;25.03;;
17832;SDS011;9041;49.718;21.798;2022-12-07T14:44:50;32.43;;;15.90;;
17832;SDS011;9041;49.718;21.798;2022-12-07T14:47:17;28.93;;;14.83;;
17832;SDS011;9041;49.718;21.798;2022-12-07T14:49:44;32.33;;;15.00;;
17832;SDS011;9041;49.718;21.798;2022-12-07T14:52:12;35.50;;;17.73;;
17832;SDS011;9041;49.718;21.798;2022-12-07T14:54:40;40.93;;;19.73;;
17832;SDS011;9041;49.718;21.798;2022-12-07T14:57:07;44.60;;;19.93;;
17832;SDS011;9041;49.718;21.798;2022-12-07T14:59:36;45.10;;;21.00;;
17832;SDS011;9041;49.718;21.798;2022-12-07T15:02:03;43.03;;;19.33;;
17832;SDS011;9041;49.718;21.798;2022-12-07T15:04:32;44.33;;;19.93;;
17832;SDS011;9041;49.718;21.798;2022-12-07T15:07:00;39.60;;;18.63;;
17832;SDS011;9041;49.718;21.798;2022-12-07T15:09:27;35.07;;;16.90;;
17832;SDS011;9041;49.718;21.798;2022-12-07T15:11:53;35.37;;;16.23;;
17832;SDS011;9041;49.718;21.798;2022-12-07T15:14:20;44.87;;;19.90;;
17832;SDS011;9041;49.718;21.798;2022-12-07T15:16:48;46.47;;;19.10;;
17832;SDS011;9041;49.718;21.798;2022-12-07T15:19:15;39.53;;;19.03;;